sensor_id;sensor_type;location;lat;lon;timestamp;pressure;altitude;pressure_sealevel;temperature;humidity
77537;BME280;67783;51.656;16.106;2023-07-31T00:01:13;101335.58;;;19.54;63.25
77537;BME280;67783;51.656;16.106;2023-07-31T00:04:24;101345.88;;;19.51;64.77
77537;BME280;67783;51.656;16.106;2023-07-31T00:07:25;101347.05;;;19.48;63.20
77537;BME280;67783;51.656;16.106;2023-07-31T00:10:27;101346.52;;;19.45;63.75
77537;BME280;67783;51.656;16.106;2023-07-31T00:13:28;101350.23;;;19.44;63.22
77537;BME280;67783;51.656;16.106;2023-07-31T00:16:30;101342.49;;;19.39;63.46
77537;BME280;67783;51.656;16.106;2023-07-31T00:19:32;101352.38;;;19.40;63.19
77537;BME280;67783;51.656;16.106;2023-07-31T00:22:33;101343.67;;;19.36;63.47
77537;BME280;67783;51.656;16.106;2023-07-31T00:25:39;101351.11;;;19.34;64.85
77537;BME280;67783;51.656;16.106;2023-07-31T00:28:40;101356.55;;;19.34;63.41
77537;BME280;67783;51.656;16.106;2023-07-31T00:31:42;101352.27;;;19.32;64.03
77537;BME280;67783;51.656;16.106;2023-07-31T00:34:43;101343.27;;;19.31;63.50
77537;BME280;67783;51.656;16.106;2023-07-31T00:37:45;101343.72;;;19.27;63.85
77537;BME280;67783;51.656;16.106;2023-07-31T00:40:47;101334.70;;;19.26;63.56
77537;BME280;67783;51.656;16.106;2023-07-31T00:43:48;101341.76;;;19.19;63.83
77537;BME280;67783;51.656;16.106;2023-07-31T00:46:54;101336.09;;;19.13;65.32
77537;BME280;67783;51.656;16.106;2023-07-31T00:50:01;101330.80;;;19.11;63.83
77537;BME280;67783;51.656;16.106;2023-07-31T00:53:03;101341.57;;;19.03;64.27
77537;BME280;67783;51.656;16.106;2023-07-31T00:56:05;101341.87;;;19.00;64.03
77537;BME280;67783;51.656;16.106;2023-07-31T00:59:07;101337.89;;;18.95;64.26
77537;BME280;67783;51.656;16.106;2023-07-31T01:02:13;101328.46;;;18.89;66.23
77537;BME280;67783;51.656;16.106;2023-07-31T01:05:15;101338.19;;;18.92;64.28
77537;BME280;67783;51.656;16.106;2023-07-31T01:08:32;101334.34;;;18.84;65.00
77537;BME280;67783;51.656;16.106;2023-07-31T01:11:46;101330.21;;;18.80;65.93
77537;BME280;67783;51.656;16.106;2023-07-31T01:18:04;101333.68;;;18.73;64.78
77537;BME280;67783;51.656;16.106;2023-07-31T01:30:50;101331.16;;;18.62;65.76
77537;BME280;67783;51.656;16.106;2023-07-31T01:33:53;101325.73;;;18.62;64.98
77537;BME280;67783;51.656;16.106;2023-07-31T01:36:56;101322.59;;;18.57;65.32
77537;BME280;67783;51.656;16.106;2023-07-31T01:40:09;101324.85;;;18.52;67.31
77537;BME280;67783;51.656;16.106;2023-07-31T01:43:10;101329.42;;;18.51;65.16
77537;BME280;67783;51.656;16.106;2023-07-31T01:46:12;101324.60;;;18.45;66.00
77537;BME280;67783;51.656;16.106;2023-07-31T01:49:14;101318.18;;;18.46;65.27
77537;BME280;67783;51.656;16.106;2023-07-31T01:52:15;101322.33;;;18.40;65.72
77537;BME280;67783;51.656;16.106;2023-07-31T01:55:17;101324.34;;;18.38;65.39
77537;BME280;67783;51.656;16.106;2023-07-31T01:58:18;101319.19;;;18.35;65.67
77537;BME280;67783;51.656;16.106;2023-07-31T02:01:23;101314.36;;;18.29;67.57
77537;BME280;67783;51.656;16.106;2023-07-31T02:04:25;101320.66;;;18.30;65.66
77537;BME280;67783;51.656;16.106;2023-07-31T02:07:26;101323.80;;;18.25;66.52
77537;BME280;67783;51.656;16.106;2023-07-31T02:10:28;101321.78;;;18.27;65.76
77537;BME280;67783;51.656;16.106;2023-07-31T02:13:29;101322.95;;;18.25;66.17
77537;BME280;67783;51.656;16.106;2023-07-31T02:16:31;101322.95;;;18.25;65.64
77537;BME280;67783;51.656;16.106;2023-07-31T02:19:32;101319.80;;;18.20;66.01
77537;BME280;67783;51.656;16.106;2023-07-31T02:22:38;101326.66;;;18.14;67.78
77537;BME280;67783;51.656;16.106;2023-07-31T02:25:39;101321.95;;;18.16;65.96
77537;BME280;67783;51.656;16.106;2023-07-31T02:28:41;101322.25;;;18.13;66.47
77537;BME280;67783;51.656;16.106;2023-07-31T02:31:44;101324.97;;;18.13;65.86
77537;BME280;67783;51.656;16.106;2023-07-31T02:34:45;101323.55;;;18.09;66.24
77537;BME280;67783;51.656;16.106;2023-07-31T02:37:47;101315.55;;;18.08;65.98
77537;BME280;67783;51.656;16.106;2023-07-31T02:40:48;101319.41;;;18.05;66.23
77537;BME280;67783;51.656;16.106;2023-07-31T02:43:53;101314.97;;;18.04;67.96
77537;BME280;67783;51.656;16.106;2023-07-31T02:46:55;101302.11;;;18.06;66.09
77537;BME280;67783;51.656;16.106;2023-07-31T02:49:56;101304.98;;;18.05;66.70
77537;BME280;67783;51.656;16.106;2023-07-31T02:52:58;101296.68;;;18.06;65.99
77537;BME280;67783;51.656;16.106;2023-07-31T02:56:00;101294.99;;;18.05;66.26
77537;BME280;67783;51.656;16.106;2023-07-31T02:59:01;101293.27;;;18.04;65.95
77537;BME280;67783;51.656;16.106;2023-07-31T03:02:03;101289.83;;;18.02;66.20
77537;BME280;67783;51.656;16.106;2023-07-31T03:05:08;101294.56;;;18.00;67.50
77537;BME280;67783;51.656;16.106;2023-07-31T03:08:09;101288.97;;;18.02;66.17
77537;BME280;67783;51.656;16.106;2023-07-31T03:11:11;101302.83;;;17.98;66.55
77537;BME280;67783;51.656;16.106;2023-07-31T03:14:12;101299.98;;;18.00;65.97
77537;BME280;67783;51.656;16.106;2023-07-31T03:17:15;101303.00;;;17.97;66.35
77537;BME280;67783;51.656;16.106;2023-07-31T03:20:16;101301.84;;;17.99;65.77
77537;BME280;67783;51.656;16.106;2023-07-31T03:23:18;101303.00;;;17.97;66.04
77537;BME280;67783;51.656;16.106;2023-07-31T03:26:23;101299.43;;;17.96;66.75
77537;BME280;67783;51.656;16.106;2023-07-31T03:29:24;101299.26;;;17.98;65.70
77537;BME280;67783;51.656;16.106;2023-07-31T03:32:26;101268.47;;;17.80;65.91
77537;BME280;67783;51.656;16.106;2023-07-31T03:35:27;101293.40;;;18.03;65.48
77537;BME280;67783;51.656;16.106;2023-07-31T03:38:29;101296.98;;;18.03;65.53
77537;BME280;67783;51.656;16.106;2023-07-31T03:41:30;101287.54;;;18.07;65.30
77537;BME280;67783;51.656;16.106;2023-07-31T03:44:32;101297.24;;;18.10;65.35
77537;BME280;67783;51.656;16.106;2023-07-31T03:47:37;101298.70;;;18.14;65.42
77537;BME280;67783;51.656;16.106;2023-07-31T03:50:39;101294.21;;;18.22;64.86
77537;BME280;67783;51.656;16.106;2023-07-31T03:53:40;101287.48;;;18.26;64.79
77537;BME280;67783;51.656;16.106;2023-07-31T03:56:42;101285.62;;;18.36;64.46
77537;BME280;67783;51.656;16.106;2023-07-31T03:59:43;101280.30;;;18.44;64.45
77537;BME280;67783;51.656;16.106;2023-07-31T04:02:45;101288.70;;;18.61;63.95
77537;BME280;67783;51.656;16.106;2023-07-31T04:05:47;101282.94;;;18.73;63.62
77537;BME280;67783;51.656;16.106;2023-07-31T04:08:52;101288.46;;;18.81;62.53
77537;BME280;67783;51.656;16.106;2023-07-31T04:11:53;101288.11;;;18.94;63.07
77537;BME280;67783;51.656;16.106;2023-07-31T04:14:55;101292.03;;;19.09;62.50
77537;BME280;67783;51.656;16.106;2023-07-31T04:17:56;101286.17;;;19.31;62.35
77537;BME280;67783;51.656;16.106;2023-07-31T04:20:58;101292.06;;;19.54;61.62
77537;BME280;67783;51.656;16.106;2023-07-31T04:24:12;101286.12;;;19.76;59.97
77537;BME280;67783;51.656;16.106;2023-07-31T04:27:14;101273.77;;;19.82;60.83
77537;BME280;67783;51.656;16.106;2023-07-31T04:30:15;101293.01;;;20.06;60.09
77537;BME280;67783;51.656;16.106;2023-07-31T04:33:17;101284.58;;;20.17;60.10
77537;BME280;67783;51.656;16.106;2023-07-31T04:36:20;101288.00;;;20.19;60.04
77537;BME280;67783;51.656;16.106;2023-07-31T04:39:21;101285.81;;;20.23;60.13
77537;BME280;67783;51.656;16.106;2023-07-31T04:44:56;101279.51;;;20.22;58.67
77537;BME280;67783;51.656;16.106;2023-07-31T04:47:57;101279.51;;;20.22;59.97
77537;BME280;67783;51.656;16.106;2023-07-31T04:50:59;101278.65;;;20.22;59.59
77537;BME280;67783;51.656;16.106;2023-07-31T04:54:00;101278.59;;;20.32;59.83
77537;BME280;67783;51.656;16.106;2023-07-31T04:57:02;101269.60;;;20.39;59.41
77537;BME280;67783;51.656;16.106;2023-07-31T05:00:05;101271.89;;;20.52;59.40
77537;BME280;67783;51.656;16.106;2023-07-31T05:03:07;101269.21;;;20.60;59.25
77537;BME280;67783;51.656;16.106;2023-07-31T05:06:12;101278.13;;;20.70;58.16
77537;BME280;67783;51.656;16.106;2023-07-31T05:09:16;101278.16;;;20.78;59.21
77537;BME280;67783;51.656;16.106;2023-07-31T05:12:17;101268.95;;;20.79;58.79
77537;BME280;67783;51.656;16.106;2023-07-31T05:15:19;101270.17;;;20.85;58.99
77537;BME280;67783;51.656;16.106;2023-07-31T05:18:20;101271.89;;;20.86;58.54
77537;BME280;67783;51.656;16.106;2023-07-31T05:21:32;101267.79;;;20.82;57.08
77537;BME280;67783;51.656;16.106;2023-07-31T05:24:34;101269.16;;;20.86;58.46
77537;BME280;67783;51.656;16.106;2023-07-31T05:27:35;101270.66;;;20.80;57.81
77537;BME280;67783;51.656;16.106;2023-07-31T05:30:37;101267.79;;;20.82;58.23
77537;BME280;67783;51.656;16.106;2023-07-31T05:33:39;101270.99;;;20.77;57.91
77537;BME280;67783;51.656;16.106;2023-07-31T05:36:40;101262.83;;;20.77;58.01
77537;BME280;67783;51.656;16.106;2023-07-31T05:39:42;101261.79;;;20.70;57.86
77537;BME280;67783;51.656;16.106;2023-07-31T05:42:47;101257.83;;;20.64;56.58
77537;BME280;67783;51.656;16.106;2023-07-31T05:45:48;101266.34;;;20.61;57.91
77537;BME280;67783;51.656;16.106;2023-07-31T05:48:50;101256.78;;;20.57;57.71
77537;BME280;67783;51.656;16.106;2023-07-31T05:51:51;101266.63;;;20.58;57.93
77537;BME280;67783;51.656;16.106;2023-07-31T05:54:53;101255.73;;;20.58;57.81
77537;BME280;67783;51.656;16.106;2023-07-31T05:57:55;101265.14;;;20.64;57.80
77537;BME280;67783;51.656;16.106;2023-07-31T06:00:56;101265.67;;;20.67;57.80
77537;BME280;67783;51.656;16.106;2023-07-31T06:04:01;101264.50;;;20.70;56.73
77537;BME280;67783;51.656;16.106;2023-07-31T06:07:07;101267.30;;;20.86;57.51
77537;BME280;67783;51.656;16.106;2023-07-31T06:10:09;101259.51;;;20.99;57.08
77537;BME280;67783;51.656;16.106;2023-07-31T06:13:14;101268.78;;;21.14;57.10
77537;BME280;67783;51.656;16.106;2023-07-31T06:16:16;101274.91;;;21.16;56.76
77537;BME280;67783;51.656;16.106;2023-07-31T06:19:22;101271.69;;;21.21;55.12
77537;BME280;67783;51.656;16.106;2023-07-31T06:22:23;101265.95;;;21.32;56.57
77537;BME280;67783;51.656;16.106;2023-07-31T06:25:25;101262.71;;;21.37;55.96
77537;BME280;67783;51.656;16.106;2023-07-31T06:28:35;101257.08;;;21.54;56.34
77537;BME280;67783;51.656;16.106;2023-07-31T06:31:42;101255.22;;;21.63;55.94
77537;BME280;67783;51.656;16.106;2023-07-31T06:34:47;101253.50;;;21.70;54.02
77537;BME280;67783;51.656;16.106;2023-07-31T06:37:49;101217.71;;;21.65;55.54
77537;BME280;67783;51.656;16.106;2023-07-31T06:40:52;101256.57;;;21.91;54.79
77537;BME280;67783;51.656;16.106;2023-07-31T06:43:56;101255.58;;;22.00;55.10
77537;BME280;67783;51.656;16.106;2023-07-31T06:47:17;101260.87;;;22.10;54.82
77537;BME280;67783;51.656;16.106;2023-07-31T06:50:24;101261.88;;;22.17;54.36
77537;BME280;67783;51.656;16.106;2023-07-31T06:53:43;101265.30;;;22.19;52.45
77537;BME280;67783;51.656;16.106;2023-07-31T06:57:00;101264.77;;;22.16;54.69
77537;BME280;67783;51.656;16.106;2023-07-31T07:00:02;101270.60;;;22.04;54.56
77537;BME280;67783;51.656;16.106;2023-07-31T07:03:07;101269.94;;;21.94;53.01
77537;BME280;67783;51.656;16.106;2023-07-31T07:06:08;101268.54;;;21.90;54.66
77537;BME280;67783;51.656;16.106;2023-07-31T07:09:10;101264.61;;;21.85;54.23
77537;BME280;67783;51.656;16.106;2023-07-31T07:12:11;101264.96;;;21.82;54.73
77537;BME280;67783;51.656;16.106;2023-07-31T07:15:13;101258.96;;;21.78;54.56
77537;BME280;67783;51.656;16.106;2023-07-31T07:18:14;101260.00;;;21.85;54.72
77537;BME280;67783;51.656;16.106;2023-07-31T07:21:16;101259.15;;;21.85;54.52
77537;BME280;67783;51.656;16.106;2023-07-31T07:24:21;101263.08;;;21.82;53.15
77537;BME280;67783;51.656;16.106;2023-07-31T07:27:23;101255.56;;;21.84;54.53
77537;BME280;67783;51.656;16.106;2023-07-31T07:30:24;101253.50;;;21.78;54.10
77537;BME280;67783;51.656;16.106;2023-07-31T07:33:32;101255.91;;;21.81;54.54
77537;BME280;67783;51.656;16.106;2023-07-31T07:36:46;101252.48;;;21.79;54.44
77537;BME280;67783;51.656;16.106;2023-07-31T07:40:14;101255.22;;;21.71;54.45
77537;BME280;67783;51.656;16.106;2023-07-31T07:47:12;101258.29;;;21.60;54.74
77537;BME280;67783;51.656;16.106;2023-07-31T07:50:23;101259.66;;;21.56;54.59
77537;BME280;67783;51.656;16.106;2023-07-31T07:57:07;101264.75;;;21.51;55.20
77537;BME280;67783;51.656;16.106;2023-07-31T08:04:06;101259.64;;;21.40;55.67
77537;BME280;67783;51.656;16.106;2023-07-31T08:18:23;101261.56;;;21.05;57.44
77537;BME280;67783;51.656;16.106;2023-07-31T08:25:15;101267.51;;;21.01;57.72
77537;BME280;67783;51.656;16.106;2023-07-31T08:28:21;101278.91;;;20.96;58.83
77537;BME280;67783;51.656;16.106;2023-07-31T08:45:24;101273.48;;;21.04;58.42
77537;BME280;67783;51.656;16.106;2023-07-31T08:48:28;101270.74;;;21.04;58.11
77537;BME280;67783;51.656;16.106;2023-07-31T08:51:34;101264.63;;;21.02;58.19
77537;BME280;67783;51.656;16.106;2023-07-31T08:54:37;101266.34;;;21.03;58.83
77537;BME280;67783;51.656;16.106;2023-07-31T08:57:46;101264.80;;;21.09;58.05
77537;BME280;67783;51.656;16.106;2023-07-31T09:00:48;101262.42;;;21.06;58.25
77537;BME280;67783;51.656;16.106;2023-07-31T09:03:54;101261.22;;;21.08;58.07
77537;BME280;67783;51.656;16.106;2023-07-31T09:07:01;101255.44;;;21.03;58.19
77537;BME280;67783;51.656;16.106;2023-07-31T09:10:12;101255.73;;;21.00;58.45
77537;BME280;67783;51.656;16.106;2023-07-31T09:13:17;101257.30;;;21.03;58.13
77537;BME280;67783;51.656;16.106;2023-07-31T09:19:38;101256.41;;;20.94;58.45
77537;BME280;67783;51.656;16.106;2023-07-31T09:22:42;101266.49;;;21.02;58.52
77537;BME280;67783;51.656;16.106;2023-07-31T09:25:45;101269.59;;;21.07;58.89
77537;BME280;67783;51.656;16.106;2023-07-31T09:28:54;101274.18;;;21.06;60.30
77537;BME280;67783;51.656;16.106;2023-07-31T09:31:56;101275.71;;;21.09;59.14
77537;BME280;67783;51.656;16.106;2023-07-31T09:35:01;101261.70;;;21.04;59.58
77537;BME280;67783;51.656;16.106;2023-07-31T09:38:10;101272.80;;;21.02;59.19
77537;BME280;67783;51.656;16.106;2023-07-31T09:41:13;101270.57;;;20.98;59.36
77537;BME280;67783;51.656;16.106;2023-07-31T09:51:59;101265.95;;;20.90;59.55
77537;BME280;67783;51.656;16.106;2023-07-31T09:55:13;101255.93;;;20.99;59.58
77537;BME280;67783;51.656;16.106;2023-07-31T10:02:30;101248.13;;;21.12;59.47
77537;BME280;67783;51.656;16.106;2023-07-31T10:22:56;101208.55;;;22.37;56.83
77537;BME280;67783;51.656;16.106;2023-07-31T10:32:45;101201.35;;;22.91;55.67
77537;BME280;67783;51.656;16.106;2023-07-31T10:42:38;101208.19;;;23.41;53.75
77537;BME280;67783;51.656;16.106;2023-07-31T10:45:46;101187.53;;;23.61;54.55
77537;BME280;67783;51.656;16.106;2023-07-31T10:48:59;101181.50;;;23.66;53.95
77537;BME280;67783;51.656;16.106;2023-07-31T10:52:04;101178.21;;;23.70;53.13
77537;BME280;67783;51.656;16.106;2023-07-31T10:58:22;101174.77;;;23.54;53.48
77537;BME280;67783;51.656;16.106;2023-07-31T11:01:49;101163.34;;;23.50;51.83
77537;BME280;67783;51.656;16.106;2023-07-31T11:04:37;101167.71;;;23.59;53.53
77537;BME280;67783;51.656;16.106;2023-07-31T11:11:08;101158.31;;;23.76;52.68
77537;BME280;67783;51.656;16.106;2023-07-31T11:14:13;101158.23;;;23.84;52.83
77537;BME280;67783;51.656;16.106;2023-07-31T11:17:15;101156.82;;;23.88;52.56
77537;BME280;67783;51.656;16.106;2023-07-31T11:20:20;101143.39;;;23.93;50.07
77537;BME280;67783;51.656;16.106;2023-07-31T11:23:31;101137.09;;;24.08;52.09
77537;BME280;67783;51.656;16.106;2023-07-31T11:26:33;101130.23;;;24.26;51.54
77537;BME280;67783;51.656;16.106;2023-07-31T11:29:35;101135.76;;;24.48;51.40
77537;BME280;67783;51.656;16.106;2023-07-31T11:33:02;101124.59;;;24.64;50.32
77537;BME280;67783;51.656;16.106;2023-07-31T11:36:20;101117.63;;;24.82;50.31
77537;BME280;67783;51.656;16.106;2023-07-31T11:46:57;101108.59;;;25.03;48.29
77537;BME280;67783;51.656;16.106;2023-07-31T11:50:05;101114.54;;;25.07;47.14
77537;BME280;67783;51.656;16.106;2023-07-31T11:53:14;101105.84;;;25.24;49.43
77537;BME280;67783;51.656;16.106;2023-07-31T11:56:38;101109.16;;;25.41;48.79
77537;BME280;67783;51.656;16.106;2023-07-31T12:06:35;101086.34;;;25.62;45.93
77537;BME280;67783;51.656;16.106;2023-07-31T12:13:03;101075.81;;;25.44;48.14
77537;BME280;67783;51.656;16.106;2023-07-31T12:16:09;101077.55;;;25.52;46.89
77537;BME280;67783;51.656;16.106;2023-07-31T12:19:10;101064.37;;;25.62;47.68
77537;BME280;67783;51.656;16.106;2023-07-31T12:22:20;101066.89;;;25.63;47.26
77537;BME280;67783;51.656;16.106;2023-07-31T12:25:30;101060.61;;;25.69;45.45
77537;BME280;67783;51.656;16.106;2023-07-31T12:35:40;101048.71;;;25.97;46.73
77537;BME280;67783;51.656;16.106;2023-07-31T12:38:54;101047.25;;;26.01;46.23
77537;BME280;67783;51.656;16.106;2023-07-31T12:45:57;101026.55;;;26.05;46.71
77537;BME280;67783;51.656;16.106;2023-07-31T12:49:08;101024.84;;;25.97;46.71
77537;BME280;67783;51.656;16.106;2023-07-31T12:52:22;101015.97;;;25.95;46.23
77537;BME280;67783;51.656;16.106;2023-07-31T12:55:49;101022.34;;;26.02;44.24
77537;BME280;67783;51.656;16.106;2023-07-31T12:59:12;101029.77;;;26.08;46.30
77537;BME280;67783;51.656;16.106;2023-07-31T13:02:22;101022.34;;;26.02;46.15
77537;BME280;67783;51.656;16.106;2023-07-31T13:05:35;101020.61;;;25.95;45.71
77537;BME280;67783;51.656;16.106;2023-07-31T13:08:54;101020.13;;;25.85;44.17
77537;BME280;67783;51.656;16.106;2023-07-31T13:11:55;101034.27;;;25.82;46.15
77537;BME280;67783;51.656;16.106;2023-07-31T13:14:56;101028.95;;;25.73;45.47
77537;BME280;67783;51.656;16.106;2023-07-31T13:17:58;101023.26;;;25.75;46.11
77537;BME280;67783;51.656;16.106;2023-07-31T13:21:00;101026.36;;;25.65;45.63
77537;BME280;67783;51.656;16.106;2023-07-31T13:24:02;101030.56;;;25.61;45.94
77537;BME280;67783;51.656;16.106;2023-07-31T13:27:05;101034.10;;;25.55;45.69
77537;BME280;67783;51.656;16.106;2023-07-31T13:30:10;101034.22;;;25.47;44.70
77537;BME280;67783;51.656;16.106;2023-07-31T13:33:11;101025.23;;;25.53;46.18
77537;BME280;67783;51.656;16.106;2023-07-31T13:36:13;101024.19;;;25.54;45.64
77537;BME280;67783;51.656;16.106;2023-07-31T13:39:15;101025.57;;;25.71;46.02
77537;BME280;67783;51.656;16.106;2023-07-31T13:42:17;101020.37;;;25.90;45.79
77537;BME280;67783;51.656;16.106;2023-07-31T13:45:19;101013.49;;;26.13;45.65
77537;BME280;67783;51.656;16.106;2023-07-31T13:48:20;101000.45;;;26.22;45.18
77537;BME280;67783;51.656;16.106;2023-07-31T13:51:25;101009.98;;;26.26;43.91
77537;BME280;67783;51.656;16.106;2023-07-31T13:54:29;101010.64;;;26.28;45.18
77537;BME280;67783;51.656;16.106;2023-07-31T13:57:30;101013.16;;;26.23;44.59
77537;BME280;67783;51.656;16.106;2023-07-31T14:00:32;101008.51;;;26.24;44.80
77537;BME280;67783;51.656;16.106;2023-07-31T14:03:33;101016.55;;;26.25;44.95
77537;BME280;67783;51.656;16.106;2023-07-31T14:06:45;101011.26;;;26.30;43.64
77537;BME280;67783;51.656;16.106;2023-07-31T14:09:51;101008.32;;;26.38;44.89
77537;BME280;67783;51.656;16.106;2023-07-31T14:12:52;101014.91;;;26.37;44.62
77537;BME280;67783;51.656;16.106;2023-07-31T14:15:54;100997.98;;;26.34;44.63
77537;BME280;67783;51.656;16.106;2023-07-31T14:18:55;101002.16;;;26.23;44.48
77537;BME280;67783;51.656;16.106;2023-07-31T14:22:06;101007.60;;;26.16;42.76
77537;BME280;67783;51.656;16.106;2023-07-31T14:25:08;100999.55;;;26.15;44.66
77537;BME280;67783;51.656;16.106;2023-07-31T14:28:11;101002.06;;;26.10;44.19
77537;BME280;67783;51.656;16.106;2023-07-31T14:31:13;100995.09;;;26.07;44.61
77537;BME280;67783;51.656;16.106;2023-07-31T14:34:14;100987.46;;;26.03;44.52
77537;BME280;67783;51.656;16.106;2023-07-31T14:37:26;100993.99;;;25.95;43.18
77537;BME280;67783;51.656;16.106;2023-07-31T14:40:33;100988.27;;;25.97;44.79
77537;BME280;67783;51.656;16.106;2023-07-31T14:43:34;100993.55;;;25.92;44.67
77537;BME280;67783;51.656;16.106;2023-07-31T14:46:36;100991.42;;;25.87;45.01
77537;BME280;67783;51.656;16.106;2023-07-31T14:49:37;100983.97;;;25.75;45.00
77537;BME280;67783;51.656;16.106;2023-07-31T14:52:59;100984.38;;;25.71;44.27
77537;BME280;67783;51.656;16.106;2023-07-31T15:03:03;100969.38;;;25.74;45.19
77537;BME280;67783;51.656;16.106;2023-07-31T15:06:14;100967.06;;;25.78;44.52
77537;BME280;67783;51.656;16.106;2023-07-31T15:09:30;100961.38;;;25.79;45.40
77537;BME280;67783;51.656;16.106;2023-07-31T15:12:41;100961.57;;;25.78;45.69
77537;BME280;67783;51.656;16.106;2023-07-31T15:15:53;100958.39;;;25.74;45.65
77537;BME280;67783;51.656;16.106;2023-07-31T15:18:57;100956.73;;;25.80;45.49
77537;BME280;67783;51.656;16.106;2023-07-31T15:21:58;100950.41;;;25.86;44.65
77537;BME280;67783;51.656;16.106;2023-07-31T15:25:10;100949.18;;;25.95;42.44
77537;BME280;67783;51.656;16.106;2023-07-31T15:28:12;100945.83;;;26.06;44.22
77537;BME280;67783;51.656;16.106;2023-07-31T15:31:13;100949.43;;;26.06;43.35
77537;BME280;67783;51.656;16.106;2023-07-31T15:34:15;100942.27;;;26.12;43.94
77537;BME280;67783;51.656;16.106;2023-07-31T15:37:17;100942.03;;;26.13;43.51
77537;BME280;67783;51.656;16.106;2023-07-31T15:40:19;100937.00;;;26.17;43.63
77537;BME280;67783;51.656;16.106;2023-07-31T15:43:21;100948.62;;;26.19;43.50
77537;BME280;67783;51.656;16.106;2023-07-31T15:46:25;100938.67;;;26.18;41.65
77537;BME280;67783;51.656;16.106;2023-07-31T15:49:27;100933.18;;;26.18;43.37
77537;BME280;67783;51.656;16.106;2023-07-31T15:52:28;100932.97;;;26.13;42.87
77537;BME280;67783;51.656;16.106;2023-07-31T15:55:36;100930.23;;;26.13;43.49
77537;BME280;67783;51.656;16.106;2023-07-31T15:58:37;100927.25;;;26.08;43.52
77537;BME280;67783;51.656;16.106;2023-07-31T16:01:49;100929.77;;;26.03;42.85
77537;BME280;67783;51.656;16.106;2023-07-31T16:04:50;100937.34;;;25.94;43.77
77537;BME280;67783;51.656;16.106;2023-07-31T16:07:52;100932.64;;;25.82;43.86
77537;BME280;67783;51.656;16.106;2023-07-31T16:10:53;100939.35;;;25.72;44.12
77537;BME280;67783;51.656;16.106;2023-07-31T16:13:57;100941.00;;;25.60;44.24
77537;BME280;67783;51.656;16.106;2023-07-31T16:17:06;100942.18;;;25.51;43.98
77537;BME280;67783;51.656;16.106;2023-07-31T16:20:08;100936.84;;;25.43;44.81
77537;BME280;67783;51.656;16.106;2023-07-31T16:23:10;100933.83;;;25.32;45.25
77537;BME280;67783;51.656;16.106;2023-07-31T16:26:12;100942.48;;;25.28;45.45
77537;BME280;67783;51.656;16.106;2023-07-31T16:29:16;100938.00;;;25.21;45.79
77537;BME280;67783;51.656;16.106;2023-07-31T16:32:27;100941.12;;;25.18;46.59
77537;BME280;67783;51.656;16.106;2023-07-31T16:35:29;100932.67;;;25.13;46.23
77537;BME280;67783;51.656;16.106;2023-07-31T16:38:30;100940.65;;;25.08;46.62
77537;BME280;67783;51.656;16.106;2023-07-31T16:41:33;100936.87;;;25.09;46.55
77537;BME280;67783;51.656;16.106;2023-07-31T16:44:35;100927.97;;;25.07;46.78
77537;BME280;67783;51.656;16.106;2023-07-31T16:47:50;100930.09;;;25.05;47.68
77537;BME280;67783;51.656;16.106;2023-07-31T16:50:51;100921.63;;;25.06;46.99
77537;BME280;67783;51.656;16.106;2023-07-31T16:53:59;100922.70;;;25.05;47.27
77537;BME280;67783;51.656;16.106;2023-07-31T16:57:16;100921.86;;;25.05;47.92
77537;BME280;67783;51.656;16.106;2023-07-31T17:00:33;100914.92;;;25.09;47.32
77537;BME280;67783;51.656;16.106;2023-07-31T17:07:19;100916.21;;;25.13;47.57
77537;BME280;67783;51.656;16.106;2023-07-31T17:10:46;100909.87;;;25.12;47.76
77537;BME280;67783;51.656;16.106;2023-07-31T17:17:32;100899.09;;;25.11;48.59
77537;BME280;67783;51.656;16.106;2023-07-31T17:24:24;100901.41;;;25.14;47.99
77537;BME280;67783;51.656;16.106;2023-07-31T17:27:34;100904.53;;;25.04;48.26
77537;BME280;67783;51.656;16.106;2023-07-31T17:30:45;100908.13;;;25.05;48.84
77537;BME280;67783;51.656;16.106;2023-07-31T17:33:55;100915.77;;;25.09;48.29
77537;BME280;67783;51.656;16.106;2023-07-31T17:37:05;100919.10;;;25.05;48.42
77537;BME280;67783;51.656;16.106;2023-07-31T17:40:23;100920.94;;;24.98;48.90
77537;BME280;67783;51.656;16.106;2023-07-31T17:43:29;100924.34;;;25.00;48.59
77537;BME280;67783;51.656;16.106;2023-07-31T17:46:49;100921.16;;;24.96;48.83
77537;BME280;67783;51.656;16.106;2023-07-31T17:50:16;100927.43;;;24.90;48.96
77537;BME280;67783;51.656;16.106;2023-07-31T17:53:40;100917.61;;;24.81;49.17
77537;BME280;67783;51.656;16.106;2023-07-31T17:57:06;100909.53;;;24.73;50.35
77537;BME280;67783;51.656;16.106;2023-07-31T18:00:28;100897.67;;;24.66;50.25
77537;BME280;67783;51.656;16.106;2023-07-31T18:03:36;100909.68;;;24.65;49.68
77537;BME280;67783;51.656;16.106;2023-07-31T18:06:55;100909.23;;;24.61;50.03
77537;BME280;67783;51.656;16.106;2023-07-31T18:13:44;100899.20;;;24.47;50.40
77537;BME280;67783;51.656;16.106;2023-07-31T18:16:58;100891.17;;;24.46;51.33
77537;BME280;67783;51.656;16.106;2023-07-31T18:20:11;100880.62;;;24.43;50.35
77537;BME280;67783;51.656;16.106;2023-07-31T18:23:18;100879.05;;;24.33;50.57
77537;BME280;67783;51.656;16.106;2023-07-31T18:26:21;100847.59;;;24.08;51.32
77537;BME280;67783;51.656;16.106;2023-07-31T18:29:32;100882.51;;;24.21;50.62
77537;BME280;67783;51.656;16.106;2023-07-31T18:32:40;100887.87;;;24.14;50.96
77537;BME280;67783;51.656;16.106;2023-07-31T18:35:55;100876.86;;;24.08;51.57